createdAt,value
2023-05-22T00:00:20.988Z,13.07
2023-05-22T00:02:48.609Z,13.18
2023-05-22T00:05:15.710Z,14.20
2023-05-22T00:07:43.430Z,14.05
2023-05-22T00:10:10.985Z,14.18
2023-05-22T00:12:38.135Z,14.25
2023-05-22T00:15:06.185Z,14.80
2023-05-22T00:17:34.200Z,15.38
2023-05-22T00:20:08.280Z,15.05
2023-05-22T00:22:38.313Z,16.70
2023-05-22T00:25:06.864Z,17.17
2023-05-22T00:27:34.609Z,17.25
2023-05-22T00:30:01.737Z,16.08
2023-05-22T00:32:30.363Z,16.73
2023-05-22T00:34:57.381Z,17.23
2023-05-22T00:37:25.505Z,17.58
2023-05-22T00:39:52.498Z,17.83
2023-05-22T00:42:19.822Z,17.77
2023-05-22T00:44:48.298Z,17.35
2023-05-22T00:47:15.349Z,18.75
2023-05-22T00:49:43.547Z,18.58
2023-05-22T00:52:13.004Z,19.20
2023-05-22T00:54:40.150Z,19.15
2023-05-22T00:57:07.353Z,18.02
2023-05-22T00:59:35.493Z,16.48
2023-05-22T01:02:03.158Z,18.45
2023-05-22T01:04:33.233Z,17.10
2023-05-22T01:07:02.897Z,16.77
2023-05-22T01:09:30.408Z,18.25
2023-05-22T01:12:06.566Z,17.25
2023-05-22T01:15:01.114Z,17.15
2023-05-22T01:17:37.467Z,17.42
2023-05-22T01:20:35.402Z,16.33
2023-05-22T01:23:08.880Z,17.35
2023-05-22T01:25:38.792Z,15.73
2023-05-22T01:28:23.835Z,16.75
2023-05-22T01:31:13.377Z,16.80
2023-05-22T01:33:49.189Z,17.10
2023-05-22T01:36:22.398Z,15.73
2023-05-22T01:38:51.361Z,15.80
2023-05-22T01:41:19.279Z,16.58
2023-05-22T01:43:47.865Z,16.52
2023-05-22T01:46:14.835Z,17.02
2023-05-22T01:48:43.015Z,16.45
2023-05-22T01:51:21.070Z,16.88
2023-05-22T01:53:58.047Z,16.70
2023-05-22T01:56:34.830Z,18.02
2023-05-22T01:59:15.152Z,18.33
2023-05-22T02:01:43.390Z,18.10
2023-05-22T02:04:11.418Z,18.17
2023-05-22T02:06:39.120Z,18.15
2023-05-22T02:09:07.164Z,20.23
2023-05-22T02:11:39.422Z,20.58
2023-05-22T02:14:08.759Z,20.02
2023-05-22T02:16:35.842Z,21.73
2023-05-22T02:19:08.648Z,21.33
2023-05-22T02:21:36.509Z,21.27
2023-05-22T02:24:03.917Z,21.58
2023-05-22T02:26:30.950Z,21.30
2023-05-22T02:28:59.226Z,20.48
2023-05-22T02:31:26.528Z,22.88
2023-05-22T02:33:53.583Z,21.92
2023-05-22T02:36:20.756Z,21.50
2023-05-22T02:38:48.201Z,21.55
2023-05-22T02:41:15.320Z,22.80
2023-05-22T02:43:42.251Z,22.55
2023-05-22T02:46:09.280Z,22.23
2023-05-22T02:48:37.119Z,22.92
2023-05-22T02:51:04.313Z,23.40
2023-05-22T02:53:31.940Z,22.55
2023-05-22T02:55:59.171Z,22.48
2023-05-22T02:58:26.210Z,23.10
2023-05-22T03:00:53.740Z,24.50
2023-05-22T03:03:20.896Z,25.80
2023-05-22T03:05:48.160Z,27.10
2023-05-22T03:08:16.072Z,28.08
2023-05-22T03:10:43.069Z,27.42
2023-05-22T03:13:10.017Z,27.88
2023-05-22T03:15:37.082Z,30.52
2023-05-22T03:18:11.744Z,32.92
2023-05-22T03:20:40.112Z,33.70
2023-05-22T03:23:07.383Z,32.42
2023-05-22T03:25:34.798Z,34.17
2023-05-22T03:28:02.727Z,32.35
2023-05-22T03:30:34.099Z,33.85
2023-05-22T03:33:11.737Z,31.63
2023-05-22T03:35:39.676Z,32.90
2023-05-22T03:38:06.689Z,33.92
2023-05-22T03:40:34.035Z,34.00
2023-05-22T03:43:01.080Z,34.63
2023-05-22T03:45:28.343Z,32.72
2023-05-22T03:47:55.527Z,35.00
2023-05-22T03:50:24.232Z,34.35
2023-05-22T03:52:51.168Z,33.20
2023-05-22T03:55:18.228Z,34.33
2023-05-22T03:57:45.246Z,33.00
2023-05-22T04:00:13.629Z,35.33
2023-05-22T04:02:45.134Z,36.13
2023-05-22T04:05:13.173Z,38.13
2023-05-22T04:07:40.189Z,33.00
2023-05-22T04:10:07.880Z,37.42
2023-05-22T04:12:35.093Z,37.08
2023-05-22T04:15:02.234Z,36.85
2023-05-22T04:17:33.832Z,37.63
2023-05-22T04:20:01.022Z,37.28
2023-05-22T04:22:28.051Z,38.58
2023-05-22T04:24:55.006Z,36.55
2023-05-22T04:27:22.720Z,38.05
2023-05-22T04:29:52.519Z,38.00
2023-05-22T04:32:21.729Z,42.15
2023-05-22T04:34:52.560Z,40.67
2023-05-22T04:37:20.473Z,41.17
2023-05-22T04:39:52.919Z,40.72
2023-05-22T04:42:20.520Z,42.83
2023-05-22T04:44:48.326Z,42.70
2023-05-22T04:47:15.488Z,39.78
2023-05-22T04:49:43.716Z,41.35
2023-05-22T04:52:11.658Z,41.60
2023-05-22T04:54:38.983Z,42.55
2023-05-22T04:57:06.276Z,40.00
2023-05-22T04:59:39.443Z,43.92
2023-05-22T05:02:06.885Z,44.90
2023-05-22T05:04:34.379Z,43.55
2023-05-22T05:07:02.457Z,48.35
2023-05-22T05:09:29.741Z,43.72
2023-05-22T05:11:56.960Z,45.05
2023-05-22T05:14:24.517Z,40.92
2023-05-22T05:16:51.927Z,45.35
2023-05-22T05:19:21.556Z,43.70
2023-05-22T05:21:49.424Z,42.05
2023-05-22T05:24:20.256Z,39.78
2023-05-22T05:26:48.455Z,41.67
2023-05-22T05:29:17.757Z,37.53
2023-05-22T05:31:54.687Z,41.30
2023-05-22T05:34:32.982Z,39.90
2023-05-22T05:37:03.340Z,41.58
2023-05-22T05:39:31.243Z,34.53
2023-05-22T05:42:00.858Z,42.60
2023-05-22T05:44:28.170Z,37.72
2023-05-22T05:46:55.313Z,39.50
2023-05-22T05:49:22.619Z,42.35
2023-05-22T05:51:50.370Z,40.88
2023-05-22T05:54:18.407Z,45.63
2023-05-22T05:56:46.514Z,41.17
2023-05-22T05:59:13.835Z,42.17
2023-05-22T06:02:01.036Z,39.30
2023-05-22T06:04:31.899Z,40.58
2023-05-22T06:06:58.935Z,42.10
2023-05-22T06:09:32.990Z,38.50
2023-05-22T06:12:13.016Z,38.47
2023-05-22T06:14:43.464Z,35.75
2023-05-22T06:17:10.530Z,35.80
2023-05-22T06:19:40.116Z,32.83
2023-05-22T06:22:08.276Z,36.97
2023-05-22T06:24:37.559Z,33.95
2023-05-22T06:27:11.152Z,35.80
2023-05-22T06:29:38.625Z,37.30
2023-05-22T06:32:06.628Z,35.10
2023-05-22T06:34:34.031Z,39.72
2023-05-22T06:37:03.778Z,34.15
2023-05-22T06:39:36.771Z,35.95
2023-05-22T06:42:11.241Z,36.80
2023-05-22T06:44:56.685Z,31.20
2023-05-22T06:47:28.248Z,30.90
2023-05-22T06:49:55.414Z,35.97
2023-05-22T06:52:22.659Z,34.50
2023-05-22T06:54:49.889Z,30.67
2023-05-22T06:57:16.914Z,33.72
2023-05-22T06:59:45.382Z,34.00
2023-05-22T07:02:26.443Z,32.47
2023-05-22T07:05:13.812Z,36.78
2023-05-22T07:07:51.117Z,32.15
2023-05-22T07:10:18.212Z,34.13
2023-05-22T07:12:46.015Z,30.50
2023-05-22T07:15:14.571Z,34.30
2023-05-22T07:17:47.473Z,31.52
2023-05-22T07:20:15.897Z,30.88
2023-05-22T07:22:49.071Z,30.75
2023-05-22T07:25:16.785Z,31.67
2023-05-22T07:27:43.949Z,29.05
2023-05-22T07:30:13.075Z,27.83
2023-05-22T07:32:41.511Z,25.33
2023-05-22T07:35:10.800Z,27.83
2023-05-22T07:37:38.437Z,27.10
2023-05-22T07:40:09.873Z,28.60
2023-05-22T07:42:38.243Z,28.70
2023-05-22T07:45:06.448Z,30.48
2023-05-22T07:47:34.023Z,28.02
2023-05-22T07:50:04.259Z,22.67
2023-05-22T07:52:32.904Z,19.80
2023-05-22T07:55:00.913Z,25.33
2023-05-22T07:57:29.928Z,24.10
2023-05-22T08:00:06.326Z,21.40
2023-05-22T08:02:43.051Z,25.17
2023-05-22T08:05:10.845Z,23.80
2023-05-22T08:07:38.141Z,19.23
2023-05-22T08:10:17.498Z,23.67
2023-05-22T08:12:44.727Z,27.60
2023-05-22T08:15:12.217Z,22.08
2023-05-22T08:17:39.521Z,29.58
2023-05-22T08:20:07.615Z,27.08
2023-05-22T08:22:35.860Z,29.65
2023-05-22T08:25:02.967Z,21.15
2023-05-22T08:27:29.980Z,25.38
2023-05-22T08:29:56.989Z,26.63
2023-05-22T08:32:24.078Z,28.52
2023-05-22T08:34:51.273Z,29.33
2023-05-22T08:37:18.330Z,24.05
2023-05-22T08:39:45.518Z,28.13
2023-05-22T08:42:12.688Z,25.40
2023-05-22T08:44:39.915Z,24.27
2023-05-22T08:47:11.271Z,19.75
2023-05-22T08:49:40.136Z,23.27
2023-05-22T08:52:14.675Z,23.75
2023-05-22T08:54:44.708Z,23.98
2023-05-22T08:57:12.092Z,21.45
2023-05-22T08:59:41.187Z,18.55
2023-05-22T09:02:09.016Z,22.42
2023-05-22T09:04:36.294Z,22.50
2023-05-22T09:07:06.038Z,23.05
2023-05-22T09:09:37.728Z,24.52
2023-05-22T09:12:09.700Z,24.23
2023-05-22T09:14:43.461Z,24.77
2023-05-22T09:17:14.789Z,23.25
2023-05-22T09:19:46.061Z,21.38
2023-05-22T09:22:14.443Z,23.80
2023-05-22T09:24:42.517Z,23.30
2023-05-22T09:27:11.071Z,25.05
2023-05-22T09:29:51.637Z,25.50
2023-05-22T09:32:19.214Z,24.17
2023-05-22T09:34:47.027Z,25.13
2023-05-22T09:37:14.957Z,23.10
2023-05-22T09:39:47.705Z,25.08
2023-05-22T09:42:18.144Z,23.77
2023-05-22T09:44:49.483Z,25.50
2023-05-22T09:47:17.364Z,25.23
2023-05-22T09:49:45.568Z,25.02
2023-05-22T09:52:13.088Z,25.35
2023-05-22T09:54:55.241Z,22.92
2023-05-22T09:57:25.113Z,24.10
2023-05-22T09:59:54.615Z,22.90
2023-05-22T10:02:24.223Z,17.45
2023-05-22T10:04:52.778Z,18.30
2023-05-22T10:07:23.188Z,25.52
2023-05-22T10:10:04.103Z,19.75
2023-05-22T10:12:33.954Z,22.95
2023-05-22T10:15:02.813Z,18.27
2023-05-22T10:17:30.718Z,23.77
2023-05-22T10:19:58.573Z,18.77
2023-05-22T10:22:29.180Z,23.48
2023-05-22T10:24:56.367Z,21.23
2023-05-22T10:27:23.378Z,22.77
2023-05-22T10:30:18.149Z,24.45
2023-05-22T10:33:12.282Z,24.23
2023-05-22T10:35:47.485Z,26.35
2023-05-22T10:38:57.597Z,27.38
2023-05-22T10:41:25.989Z,25.95
2023-05-22T10:43:56.861Z,24.20
2023-05-22T10:46:24.166Z,25.08
2023-05-22T10:48:53.256Z,21.88
2023-05-22T10:51:22.752Z,23.40
2023-05-22T10:53:58.005Z,24.63
2023-05-22T10:56:35.204Z,26.52
2023-05-22T10:59:05.426Z,24.65
2023-05-22T11:01:38.058Z,24.75
2023-05-22T11:04:19.496Z,25.77
2023-05-22T11:07:06.838Z,23.95
2023-05-22T11:09:55.120Z,24.95
2023-05-22T11:12:28.491Z,25.60
2023-05-22T11:15:05.865Z,26.88
2023-05-22T11:17:36.469Z,23.00
2023-05-22T11:20:18.623Z,24.15
2023-05-22T11:22:59.580Z,24.00
2023-05-22T11:25:28.258Z,27.00
2023-05-22T11:27:56.943Z,25.20
2023-05-22T11:30:30.601Z,25.45
2023-05-22T11:33:00.105Z,25.02
2023-05-22T11:35:28.284Z,24.92
2023-05-22T11:37:56.326Z,26.23
2023-05-22T11:40:25.776Z,23.55
2023-05-22T11:42:53.850Z,25.73
2023-05-22T11:45:21.731Z,25.77
2023-05-22T11:47:50.203Z,23.42
2023-05-22T11:50:29.345Z,25.17
2023-05-22T11:53:04.496Z,24.58
2023-05-22T11:55:33.615Z,24.23
2023-05-22T11:58:02.501Z,24.92
2023-05-22T12:00:31.172Z,23.35
2023-05-22T12:02:58.792Z,24.52
2023-05-22T12:05:25.975Z,22.40
2023-05-22T12:07:53.290Z,26.02
2023-05-22T12:10:20.450Z,24.25
2023-05-22T12:12:48.213Z,22.33
2023-05-22T12:15:20.469Z,23.30
2023-05-22T12:17:47.527Z,22.85
2023-05-22T12:20:14.643Z,24.08
2023-05-22T12:22:43.238Z,25.13
2023-05-22T12:25:16.862Z,22.20
2023-05-22T12:27:45.536Z,23.05
2023-05-22T12:30:13.643Z,22.88
2023-05-22T12:32:41.079Z,22.60
2023-05-22T12:35:15.921Z,22.65
2023-05-22T12:37:49.256Z,25.02
2023-05-22T12:40:16.320Z,21.13
2023-05-22T12:42:44.881Z,22.08
2023-05-22T12:45:13.291Z,20.77
2023-05-22T12:47:40.403Z,19.55
2023-05-22T12:50:08.535Z,22.63
2023-05-22T12:52:36.253Z,20.40
2023-05-22T12:55:03.537Z,20.58
2023-05-22T12:57:30.485Z,20.00
2023-05-22T12:59:57.554Z,19.75
2023-05-22T13:02:25.046Z,19.27
2023-05-22T13:04:52.139Z,19.48
2023-05-22T13:07:19.180Z,19.83
2023-05-22T13:09:46.311Z,15.25
2023-05-22T13:12:13.455Z,16.42
2023-05-22T13:14:40.887Z,18.00
2023-05-22T13:17:08.228Z,17.52
2023-05-22T13:19:35.340Z,14.02
2023-05-22T13:22:02.444Z,19.25
2023-05-22T13:24:30.482Z,13.88
2023-05-22T13:26:57.537Z,16.33
2023-05-22T13:29:24.531Z,11.48
2023-05-22T13:31:51.589Z,14.02
2023-05-22T13:34:18.862Z,17.65
2023-05-22T13:36:46.603Z,17.80
2023-05-22T13:39:13.628Z,13.80
2023-05-22T13:41:40.780Z,12.98
2023-05-22T13:44:07.849Z,12.88
2023-05-22T13:46:34.873Z,13.57
2023-05-22T13:49:01.878Z,15.77
2023-05-22T13:51:29.216Z,13.88
2023-05-22T13:53:56.076Z,12.65
2023-05-22T13:56:23.777Z,12.82
2023-05-22T13:58:50.631Z,14.05
2023-05-22T14:01:17.575Z,14.45
